Time;durP1;ratioP1;P1;durP2;ratioP2;P2;SDS_P1;SDS_P2;PMS_P1;PMS_P2;Temp;Humidity;BMP_temperature;BMP_pressure;BME280_temperature;BME280_humidity;BME280_pressure;Samples;Min_cycle;Max_cycle;Signal;HPM_P1;HPM_P2
2022/03/27 00:01:04;;;;;;;29.48;11.05;;;;;;;;;;5095880;27;20136;-76
2022/03/27 00:03:41;;;;;;;26.85;11.00;;;;;;;;;;5076070;27;20040;-76
2022/03/27 00:06:10;;;;;;;24.20;10.38;;;;;;;;;;5080965;27;20517;-76
2022/03/27 00:08:36;;;;;;;28.27;11.95;;;;;;;;;;5077783;27;20042;-76
2022/03/27 00:13:47;;;;;;;29.13;12.23;;;;;;;;;;5091235;27;20567;-76
2022/03/27 00:16:14;;;;;;;22.63;10.93;;;;;;;;;;5074335;28;20043;-76
2022/03/27 00:18:41;;;;;;;22.85;9.57;;;;;;;;;;5074341;28;20039;-76
2022/03/27 00:21:07;;;;;;;23.20;9.75;;;;;;;;;;5075736;28;20093;-76
2022/03/27 00:23:34;;;;;;;24.85;10.00;;;;;;;;;;5070210;28;20123;-76
2022/03/27 00:26:00;;;;;;;25.20;10.80;;;;;;;;;;5072549;28;20583;-76
2022/03/27 00:28:35;;;;;;;22.48;10.23;;;;;;;;;;5069696;28;20072;-76
2022/03/27 00:31:02;;;;;;;24.60;10.35;;;;;;;;;;5069334;28;20371;-76
2022/03/27 00:33:36;;;;;;;25.27;10.55;;;;;;;;;;5074702;28;20106;-76
2022/03/27 00:36:06;;;;;;;19.10;10.55;;;;;;;;;;5065446;28;20523;-76
2022/03/27 00:38:32;;;;;;;26.63;10.80;;;;;;;;;;5071135;28;20078;-76
2022/03/27 00:40:59;;;;;;;31.20;11.55;;;;;;;;;;5071592;28;20572;-76
2022/03/27 00:43:26;;;;;;;23.30;11.45;;;;;;;;;;5062970;28;20545;-76
2022/03/27 00:45:53;;;;;;;19.38;10.20;;;;;;;;;;5071292;28;20071;-76
2022/03/27 00:48:22;;;;;;;26.10;11.75;;;;;;;;;;5076213;28;20064;-76
2022/03/27 00:50:49;;;;;;;23.25;10.13;;;;;;;;;;5066967;28;20076;-76
2022/03/27 00:53:15;;;;;;;24.33;11.63;;;;;;;;;;5069181;28;20053;-76
2022/03/27 00:55:41;;;;;;;22.75;10.13;;;;;;;;;;5067889;28;20041;-76
2022/03/27 00:58:08;;;;;;;28.75;10.65;;;;;;;;;;5067202;28;20044;-76
2022/03/27 01:00:49;;;;;;;22.48;9.88;;;;;;;;;;5066549;28;20131;-76
2022/03/27 01:03:31;;;;;;;19.73;9.43;;;;;;;;;;5164300;27;20456;-76
2022/03/27 01:06:08;;;;;;;26.15;10.43;;;;;;;;;;5151536;27;20043;-76
2022/03/27 01:11:25;;;;;;;24.95;11.18;;;;;;;;;;5148966;27;20046;-76
2022/03/27 01:13:55;;;;;;;27.02;10.63;;;;;;;;;;5149171;27;20050;-76
2022/03/27 01:16:35;;;;;;;25.38;10.20;;;;;;;;;;5148091;27;20702;-76
2022/03/27 01:19:04;;;;;;;25.65;11.40;;;;;;;;;;5133333;27;20495;-76
2022/03/27 01:21:39;;;;;;;27.77;10.52;;;;;;;;;;5133463;27;20137;-76
2022/03/27 01:24:06;;;;;;;25.00;11.02;;;;;;;;;;5149013;27;20040;-76
2022/03/27 01:26:35;;;;;;;20.63;9.52;;;;;;;;;;5132761;27;20047;-76
2022/03/27 01:29:04;;;;;;;24.13;10.07;;;;;;;;;;5134828;27;20147;-76
2022/03/27 01:31:33;;;;;;;22.52;11.13;;;;;;;;;;5135619;27;20046;-77
2022/03/27 01:33:59;;;;;;;26.33;11.20;;;;;;;;;;5136775;27;20035;-76
2022/03/27 01:36:34;;;;;;;28.52;10.70;;;;;;;;;;5131810;27;20051;-76
2022/03/27 01:39:03;;;;;;;24.17;10.00;;;;;;;;;;5129866;27;20548;-76
2022/03/27 01:41:29;;;;;;;30.65;10.57;;;;;;;;;;5135922;27;20054;-76
2022/03/27 01:43:55;;;;;;;25.48;11.20;;;;;;;;;;5132083;27;20765;-76
2022/03/27 01:46:24;;;;;;;22.73;8.13;;;;;;;;;;5131090;27;20586;-76
2022/03/27 01:48:50;;;;;;;22.10;9.98;;;;;;;;;;5130860;27;20041;-77
2022/03/27 01:51:22;;;;;;;21.58;11.75;;;;;;;;;;5149943;27;20138;-77
2022/03/27 01:53:48;;;;;;;21.52;11.75;;;;;;;;;;5146701;27;20065;-77
2022/03/27 01:56:21;;;;;;;24.38;9.63;;;;;;;;;;5129540;27;20047;-77
2022/03/27 01:58:47;;;;;;;29.27;11.45;;;;;;;;;;5129253;27;20185;-76
2022/03/27 02:01:13;;;;;;;24.30;10.77;;;;;;;;;;5133284;27;20105;-76
2022/03/27 02:03:40;;;;;;;26.13;8.98;;;;;;;;;;5134141;27;20039;-77
2022/03/27 02:06:08;;;;;;;18.77;9.80;;;;;;;;;;5131116;27;20039;-76
2022/03/27 02:08:36;;;;;;;22.40;10.90;;;;;;;;;;5128744;27;20526;-76
2022/03/27 02:11:02;;;;;;;27.38;11.98;;;;;;;;;;5130163;27;20545;-76
2022/03/27 02:13:30;;;;;;;35.92;12.68;;;;;;;;;;5125486;27;20051;-76
2022/03/27 02:16:00;;;;;;;25.80;10.75;;;;;;;;;;5117845;27;20134;-76
2022/03/27 02:18:27;;;;;;;22.92;10.75;;;;;;;;;;5114952;27;20142;-77
2022/03/27 02:20:54;;;;;;;30.75;13.48;;;;;;;;;;5134358;27;20036;-76
2022/03/27 02:23:24;;;;;;;25.67;10.68;;;;;;;;;;5119772;27;20107;-76
2022/03/27 02:25:50;;;;;;;25.13;10.35;;;;;;;;;;5132933;27;20043;-76
2022/03/27 02:28:16;;;;;;;27.05;12.23;;;;;;;;;;5131141;27;20047;-77
2022/03/27 02:30:43;;;;;;;30.70;10.23;;;;;;;;;;5137568;27;20048;-77
2022/03/27 02:33:09;;;;;;;33.70;11.90;;;;;;;;;;5135310;27;20071;-76
2022/03/27 02:35:35;;;;;;;22.65;11.73;;;;;;;;;;5116475;27;20043;-77
2022/03/27 02:38:05;;;;;;;32.00;13.27;;;;;;;;;;5118735;27;20039;-76
2022/03/27 02:40:35;;;;;;;33.55;11.48;;;;;;;;;;5137604;27;20043;-76
2022/03/27 02:43:01;;;;;;;30.08;12.20;;;;;;;;;;5136985;27;20046;-77
2022/03/27 02:45:28;;;;;;;27.25;11.43;;;;;;;;;;5134467;27;20096;-77
2022/03/27 02:47:58;;;;;;;25.05;11.77;;;;;;;;;;5140115;27;20092;-76
2022/03/27 02:50:24;;;;;;;28.45;12.68;;;;;;;;;;5132549;27;20054;-76
2022/03/27 02:52:51;;;;;;;31.48;12.15;;;;;;;;;;5117337;27;20044;-76
2022/03/27 02:55:18;;;;;;;26.80;11.32;;;;;;;;;;5117358;27;20040;-76
2022/03/27 02:57:44;;;;;;;29.88;10.95;;;;;;;;;;5134640;27;20043;-76
2022/03/27 03:00:13;;;;;;;28.23;9.93;;;;;;;;;;5137705;27;21559;-77
2022/03/27 03:02:39;;;;;;;23.73;11.93;;;;;;;;;;5127472;27;20047;-75
2022/03/27 03:05:05;;;;;;;25.15;11.07;;;;;;;;;;5125236;27;20035;-77
2022/03/27 03:07:33;;;;;;;28.52;11.95;;;;;;;;;;5129872;27;20060;-75
2022/03/27 03:10:06;;;;;;;30.10;11.43;;;;;;;;;;5126405;27;20050;-76
2022/03/27 03:12:34;;;;;;;21.98;10.80;;;;;;;;;;5131232;27;20107;-75
2022/03/27 03:15:01;;;;;;;29.05;11.48;;;;;;;;;;5125595;27;20094;-75
2022/03/27 03:17:27;;;;;;;24.45;10.98;;;;;;;;;;5116773;27;20082;-76
2022/03/27 03:19:56;;;;;;;29.80;11.15;;;;;;;;;;5118643;27;20093;-76
2022/03/27 03:22:23;;;;;;;27.80;11.00;;;;;;;;;;5113308;27;20040;-76
2022/03/27 03:24:50;;;;;;;24.85;11.40;;;;;;;;;;5116349;27;20055;-76
2022/03/27 03:27:16;;;;;;;22.10;9.80;;;;;;;;;;5116673;27;20078;-76
2022/03/27 03:29:45;;;;;;;30.90;10.95;;;;;;;;;;5113322;27;22306;-75
2022/03/27 03:32:11;;;;;;;23.92;10.52;;;;;;;;;;5122693;27;20066;-76
2022/03/27 03:34:37;;;;;;;22.50;10.90;;;;;;;;;;5125523;27;20043;-76
2022/03/27 03:37:03;;;;;;;25.27;11.77;;;;;;;;;;5128708;27;20059;-75
2022/03/27 03:39:30;;;;;;;33.28;10.85;;;;;;;;;;5129048;27;20046;-76
2022/03/27 03:41:56;;;;;;;25.38;12.60;;;;;;;;;;5128047;27;20028;-77
2022/03/27 03:44:26;;;;;;;25.50;9.65;;;;;;;;;;5125758;27;20050;-77
2022/03/27 03:46:55;;;;;;;28.42;9.77;;;;;;;;;;5127794;27;20051;-77
2022/03/27 03:49:24;;;;;;;26.08;9.88;;;;;;;;;;5127048;27;20047;-76
2022/03/27 03:51:53;;;;;;;21.65;9.93;;;;;;;;;;5125903;27;20598;-76
2022/03/27 03:54:21;;;;;;;23.42;10.52;;;;;;;;;;5124548;27;20130;-77
2022/03/27 03:56:47;;;;;;;22.27;9.15;;;;;;;;;;5130548;27;20091;-76
2022/03/27 03:59:14;;;;;;;21.35;10.65;;;;;;;;;;5124258;27;20043;-76
2022/03/27 04:01:42;;;;;;;24.65;11.07;;;;;;;;;;5126277;27;20059;-76
2022/03/27 04:04:08;;;;;;;29.70;9.93;;;;;;;;;;5144309;27;20049;-77
2022/03/27 04:06:35;;;;;;;24.98;11.20;;;;;;;;;;5146794;27;20122;-76
2022/03/27 04:09:03;;;;;;;19.17;8.90;;;;;;;;;;5127134;27;20106;-76
2022/03/27 04:11:29;;;;;;;29.10;11.32;;;;;;;;;;5122276;27;20131;-76
2022/03/27 04:13:58;;;;;;;33.10;11.30;;;;;;;;;;5118008;27;20118;-76
2022/03/27 04:16:24;;;;;;;29.20;12.02;;;;;;;;;;5113773;27;20027;-76
2022/03/27 04:18:57;;;;;;;27.08;11.30;;;;;;;;;;5136763;27;20039;-75
2022/03/27 04:21:28;;;;;;;22.88;10.10;;;;;;;;;;5122020;27;20505;-76
2022/03/27 04:24:00;;;;;;;29.02;9.57;;;;;;;;;;5132864;27;20067;-75
2022/03/27 04:26:26;;;;;;;30.73;11.63;;;;;;;;;;5117474;27;20598;-75
2022/03/27 04:28:54;;;;;;;28.85;10.00;;;;;;;;;;5135048;27;20528;-76
2022/03/27 04:31:23;;;;;;;30.10;10.98;;;;;;;;;;5115427;27;20031;-75
2022/03/27 04:33:52;;;;;;;24.73;9.75;;;;;;;;;;5120791;27;20123;-76
2022/03/27 04:36:18;;;;;;;26.33;10.32;;;;;;;;;;5118142;27;20062;-76
2022/03/27 04:38:46;;;;;;;25.63;9.52;;;;;;;;;;5114208;27;20047;-75
2022/03/27 04:41:13;;;;;;;24.40;10.57;;;;;;;;;;5112331;27;20061;-75
2022/03/27 04:43:39;;;;;;;27.48;10.63;;;;;;;;;;5118911;27;20130;-75
2022/03/27 04:46:07;;;;;;;22.80;10.30;;;;;;;;;;5117822;27;20491;-76
2022/03/27 04:48:34;;;;;;;22.83;11.05;;;;;;;;;;5132214;27;20070;-77
2022/03/27 04:51:00;;;;;;;26.25;10.88;;;;;;;;;;5113029;27;20092;-76
2022/03/27 04:53:26;;;;;;;23.08;12.43;;;;;;;;;;5131996;27;20045;-76
2022/03/27 04:55:55;;;;;;;25.85;11.00;;;;;;;;;;5116201;27;20043;-76
2022/03/27 04:58:21;;;;;;;22.27;9.98;;;;;;;;;;5139542;27;20047;-76
2022/03/27 05:00:47;;;;;;;32.28;11.38;;;;;;;;;;5136098;27;20039;-76
2022/03/27 05:03:16;;;;;;;19.75;10.20;;;;;;;;;;5115636;27;20063;-76
2022/03/27 05:05:43;;;;;;;29.88;12.20;;;;;;;;;;5135735;27;20039;-76
2022/03/27 05:08:13;;;;;;;22.45;10.23;;;;;;;;;;5115152;27;20047;-76
2022/03/27 05:10:39;;;;;;;25.23;11.73;;;;;;;;;;5134625;27;20564;-76
2022/03/27 05:13:07;;;;;;;28.80;11.18;;;;;;;;;;5133749;27;20060;-76
2022/03/27 05:15:33;;;;;;;27.70;10.25;;;;;;;;;;5115610;27;20047;-76
2022/03/27 05:17:59;;;;;;;30.27;12.35;;;;;;;;;;5110613;27;20044;-76
2022/03/27 05:20:26;;;;;;;20.77;9.82;;;;;;;;;;5131244;27;20031;-76
2022/03/27 05:22:55;;;;;;;27.00;11.23;;;;;;;;;;5115644;27;20054;-76
2022/03/27 05:25:21;;;;;;;31.65;11.07;;;;;;;;;;5131600;27;20126;-76
2022/03/27 05:27:50;;;;;;;24.45;10.70;;;;;;;;;;5135342;27;20051;-75
2022/03/27 05:30:18;;;;;;;23.80;10.20;;;;;;;;;;5134663;27;20576;-75
2022/03/27 05:32:45;;;;;;;27.60;11.15;;;;;;;;;;5116761;27;20457;-75
2022/03/27 05:35:11;;;;;;;27.08;10.70;;;;;;;;;;5115649;27;20051;-76
2022/03/27 05:37:38;;;;;;;26.20;9.85;;;;;;;;;;5118148;27;20110;-76
2022/03/27 05:40:05;;;;;;;21.13;9.52;;;;;;;;;;5131757;27;20039;-76
2022/03/27 05:42:31;;;;;;;25.15;11.10;;;;;;;;;;5117264;27;20105;-75
2022/03/27 05:44:59;;;;;;;23.88;10.65;;;;;;;;;;5130055;27;20062;-76
2022/03/27 05:47:25;;;;;;;24.90;10.07;;;;;;;;;;5115518;27;20055;-76
2022/03/27 05:49:51;;;;;;;23.02;10.05;;;;;;;;;;5135673;27;20195;-76
2022/03/27 05:52:18;;;;;;;25.95;11.13;;;;;;;;;;5132715;27;20051;-76
2022/03/27 05:54:44;;;;;;;28.98;10.90;;;;;;;;;;5119906;27;20036;-76
2022/03/27 05:57:10;;;;;;;26.77;12.30;;;;;;;;;;5139252;27;20062;-76
2022/03/27 05:59:36;;;;;;;26.65;10.60;;;;;;;;;;5138629;27;20068;-76
2022/03/27 06:02:02;;;;;;;24.75;11.10;;;;;;;;;;5131441;27;20051;-76
2022/03/27 06:04:29;;;;;;;27.52;10.25;;;;;;;;;;5130547;27;20528;-76
2022/03/27 06:06:55;;;;;;;19.10;9.50;;;;;;;;;;5118159;27;20478;-76
2022/03/27 06:09:21;;;;;;;28.38;10.20;;;;;;;;;;5117391;27;20039;-76
2022/03/27 06:11:48;;;;;;;31.80;12.13;;;;;;;;;;5131573;27;20496;-75
2022/03/27 06:14:15;;;;;;;27.73;10.65;;;;;;;;;;5119539;27;20770;-75
2022/03/27 06:16:41;;;;;;;27.60;11.25;;;;;;;;;;5135023;27;20039;-75
2022/03/27 06:19:08;;;;;;;23.65;10.25;;;;;;;;;;5123283;27;20385;-76
2022/03/27 06:21:34;;;;;;;26.73;10.70;;;;;;;;;;5133409;27;20039;-75
2022/03/27 06:24:00;;;;;;;26.50;9.85;;;;;;;;;;5117007;27;20067;-76
2022/03/27 06:26:26;;;;;;;29.95;10.90;;;;;;;;;;5119143;27;20046;-76
2022/03/27 06:28:52;;;;;;;20.48;9.40;;;;;;;;;;5115850;27;20086;-75
2022/03/27 06:31:18;;;;;;;24.17;10.75;;;;;;;;;;5119023;27;20441;-75
2022/03/27 06:33:44;;;;;;;25.30;11.60;;;;;;;;;;5117416;27;20043;-75
2022/03/27 06:36:11;;;;;;;26.63;10.60;;;;;;;;;;5116846;27;20050;-76
2022/03/27 06:38:38;;;;;;;26.17;9.32;;;;;;;;;;5124313;27;20030;-75
2022/03/27 06:41:06;;;;;;;26.50;9.95;;;;;;;;;;5122086;27;20046;-76
2022/03/27 06:43:36;;;;;;;27.73;11.32;;;;;;;;;;5113349;27;20050;-76
2022/03/27 06:46:02;;;;;;;27.23;11.82;;;;;;;;;;5132116;27;20046;-75
2022/03/27 06:48:28;;;;;;;30.38;13.90;;;;;;;;;;5131946;27;20039;-76
2022/03/27 06:50:55;;;;;;;26.38;10.52;;;;;;;;;;5118635;27;20043;-75
2022/03/27 06:53:24;;;;;;;25.30;12.15;;;;;;;;;;5115957;27;20089;-76
2022/03/27 06:55:51;;;;;;;21.52;8.88;;;;;;;;;;5116531;27;20043;-76
2022/03/27 06:58:17;;;;;;;23.90;11.57;;;;;;;;;;5131251;27;20039;-76
2022/03/27 07:03:31;;;;;;;29.35;11.98;;;;;;;;;;5131004;27;20383;-75
2022/03/27 07:06:02;;;;;;;24.30;10.63;;;;;;;;;;5113777;27;20815;-80
2022/03/27 07:08:37;;;;;;;27.92;11.20;;;;;;;;;;5112812;27;20043;-79
2022/03/27 07:11:06;;;;;;;22.85;10.38;;;;;;;;;;5116560;27;20827;-76
2022/03/27 07:13:33;;;;;;;27.58;11.25;;;;;;;;;;5117226;27;20043;-76
2022/03/27 07:16:05;;;;;;;25.83;10.77;;;;;;;;;;5116070;27;20530;-82
2022/03/27 07:18:31;;;;;;;25.30;9.90;;;;;;;;;;5131975;27;21034;-77
2022/03/27 07:20:58;;;;;;;19.20;9.40;;;;;;;;;;5118960;27;20085;-77
2022/03/27 07:23:24;;;;;;;20.70;9.63;;;;;;;;;;5116268;27;20122;-76
2022/03/27 07:25:52;;;;;;;17.27;9.30;;;;;;;;;;5115446;27;20043;-77
2022/03/27 07:28:18;;;;;;;23.52;10.88;;;;;;;;;;5135860;27;20130;-77
2022/03/27 07:30:48;;;;;;;24.70;9.63;;;;;;;;;;5134298;27;20184;-76
2022/03/27 07:33:19;;;;;;;20.35;9.07;;;;;;;;;;5103897;27;20043;-76
2022/03/27 07:35:48;;;;;;;14.90;7.85;;;;;;;;;;5117151;27;20039;-76
2022/03/27 07:38:18;;;;;;;23.20;10.60;;;;;;;;;;5118469;27;20097;-77
2022/03/27 07:40:45;;;;;;;20.83;9.80;;;;;;;;;;5117542;27;20039;-73
2022/03/27 07:43:11;;;;;;;23.80;9.05;;;;;;;;;;5114521;27;20051;-73
2022/03/27 07:45:37;;;;;;;21.48;9.30;;;;;;;;;;5115701;27;20043;-72
2022/03/27 07:48:04;;;;;;;17.55;9.32;;;;;;;;;;5115411;27;21081;-74
2022/03/27 07:50:30;;;;;;;21.00;10.13;;;;;;;;;;5112152;27;20040;-73
2022/03/27 07:52:57;;;;;;;27.55;10.20;;;;;;;;;;5133007;27;20039;-73
2022/03/27 07:55:24;;;;;;;29.60;10.52;;;;;;;;;;5134462;27;20126;-73
2022/03/27 07:57:50;;;;;;;18.33;8.60;;;;;;;;;;5117181;27;20039;-73
2022/03/27 08:00:17;;;;;;;20.73;9.27;;;;;;;;;;5115855;27;20040;-73
2022/03/27 08:02:43;;;;;;;20.65;9.85;;;;;;;;;;5115763;27;20185;-73
2022/03/27 08:05:10;;;;;;;23.52;9.85;;;;;;;;;;5117842;27;20784;-73
2022/03/27 08:07:36;;;;;;;23.85;10.38;;;;;;;;;;5112484;27;20135;-73
2022/03/27 08:10:02;;;;;;;21.17;9.27;;;;;;;;;;5105746;27;20146;-73
2022/03/27 08:12:28;;;;;;;21.38;8.57;;;;;;;;;;5134202;27;20043;-74
2022/03/27 08:14:54;;;;;;;29.20;10.40;;;;;;;;;;5132638;27;20050;-73
2022/03/27 08:17:23;;;;;;;21.27;8.95;;;;;;;;;;5114660;27;20050;-74
2022/03/27 08:19:49;;;;;;;27.13;9.20;;;;;;;;;;5130893;27;20038;-74
2022/03/27 08:22:16;;;;;;;22.45;9.82;;;;;;;;;;5130743;27;20045;-74
2022/03/27 08:24:43;;;;;;;25.83;10.63;;;;;;;;;;5113388;27;20128;-74
2022/03/27 08:27:09;;;;;;;18.30;9.07;;;;;;;;;;5120360;27;20031;-74
2022/03/27 08:29:36;;;;;;;23.27;10.20;;;;;;;;;;5133309;27;20049;-74
2022/03/27 08:32:04;;;;;;;26.83;9.50;;;;;;;;;;5131498;27;20110;-74
2022/03/27 08:34:32;;;;;;;22.80;10.63;;;;;;;;;;5136295;27;20039;-74
2022/03/27 08:37:01;;;;;;;16.95;8.82;;;;;;;;;;5135466;27;20122;-74
2022/03/27 08:39:27;;;;;;;17.08;8.93;;;;;;;;;;5133358;27;20641;-74
2022/03/27 08:41:54;;;;;;;23.30;8.52;;;;;;;;;;5135861;27;20075;-74
2022/03/27 08:44:21;;;;;;;19.15;8.20;;;;;;;;;;5115231;27;20077;-74
2022/03/27 08:46:48;;;;;;;16.48;6.93;;;;;;;;;;5133409;27;20351;-74
2022/03/27 08:49:35;;;;;;;22.35;8.82;;;;;;;;;;5128819;27;20047;-74
2022/03/27 08:52:02;;;;;;;18.65;8.50;;;;;;;;;;5128165;27;20118;-74
2022/03/27 08:54:51;;;;;;;17.60;8.25;;;;;;;;;;5132381;27;20610;-74
2022/03/27 08:57:43;;;;;;;17.63;8.82;;;;;;;;;;5094721;27;20120;-74
2022/03/27 09:00:11;;;;;;;18.17;8.52;;;;;;;;;;5093406;27;20050;-75
2022/03/27 09:02:37;;;;;;;17.80;8.32;;;;;;;;;;5112513;27;20051;-75
2022/03/27 09:05:04;;;;;;;22.15;8.77;;;;;;;;;;5128871;27;20118;-75
2022/03/27 09:07:31;;;;;;;28.25;8.75;;;;;;;;;;5114676;27;20189;-75
2022/03/27 09:10:00;;;;;;;14.10;7.00;;;;;;;;;;5131248;27;20070;-74
2022/03/27 09:12:26;;;;;;;18.95;8.40;;;;;;;;;;5117176;27;20531;-74
2022/03/27 09:14:53;;;;;;;23.17;9.25;;;;;;;;;;5113328;27;20068;-74
2022/03/27 09:17:19;;;;;;;15.93;7.60;;;;;;;;;;5112743;27;20526;-75
2022/03/27 09:19:49;;;;;;;23.67;9.80;;;;;;;;;;5126548;27;20050;-74
2022/03/27 09:22:15;;;;;;;18.83;8.00;;;;;;;;;;5114142;27;20188;-75
2022/03/27 09:24:42;;;;;;;17.52;8.02;;;;;;;;;;5135206;27;20040;-74
2022/03/27 09:27:09;;;;;;;18.10;7.25;;;;;;;;;;5132430;27;20122;-74
2022/03/27 09:29:59;;;;;;;18.95;8.25;;;;;;;;;;5135233;27;20036;-74
2022/03/27 09:32:26;;;;;;;16.13;8.45;;;;;;;;;;5115934;27;20540;-74
2022/03/27 09:35:00;;;;;;;23.17;10.18;;;;;;;;;;5136442;27;20054;-76
2022/03/27 09:37:46;;;;;;;15.13;7.55;;;;;;;;;;5114123;27;20051;-76
2022/03/27 09:40:13;;;;;;;19.55;8.82;;;;;;;;;;5118347;27;20043;-76
2022/03/27 09:42:40;;;;;;;15.85;7.95;;;;;;;;;;5132016;27;20045;-76
2022/03/27 09:45:10;;;;;;;14.85;7.60;;;;;;;;;;5115535;27;20043;-76
2022/03/27 09:47:39;;;;;;;22.85;8.63;;;;;;;;;;5131178;27;20036;-76
2022/03/27 09:50:05;;;;;;;14.85;8.48;;;;;;;;;;5134538;27;20126;-76
2022/03/27 09:52:33;;;;;;;18.38;8.73;;;;;;;;;;5133306;27;20046;-75
2022/03/27 09:55:09;;;;;;;19.88;8.02;;;;;;;;;;5114302;27;20054;-76
2022/03/27 09:57:37;;;;;;;22.10;8.68;;;;;;;;;;5119251;27;20064;-75
2022/03/27 10:00:13;;;;;;;23.17;8.95;;;;;;;;;;5114210;27;20521;-76
2022/03/27 10:02:39;;;;;;;22.25;8.43;;;;;;;;;;5112872;27;21283;-76
2022/03/27 10:05:06;;;;;;;18.92;8.02;;;;;;;;;;5114446;27;20036;-75
2022/03/27 10:07:36;;;;;;;15.73;8.20;;;;;;;;;;5115088;27;20067;-75
2022/03/27 10:10:09;;;;;;;14.40;7.95;;;;;;;;;;5133492;27;20114;-76
2022/03/27 10:12:47;;;;;;;20.08;8.35;;;;;;;;;;5121891;27;20031;-76
2022/03/27 10:15:18;;;;;;;17.95;8.73;;;;;;;;;;5116270;27;20047;-76
2022/03/27 10:18:10;;;;;;;19.30;9.48;;;;;;;;;;5117818;27;20035;-75
2022/03/27 10:20:51;;;;;;;22.27;9.02;;;;;;;;;;5138579;27;20031;-76
2022/03/27 10:23:21;;;;;;;19.20;9.57;;;;;;;;;;5135632;27;20042;-74
2022/03/27 10:25:55;;;;;;;17.05;8.60;;;;;;;;;;5116293;27;20461;-76
2022/03/27 10:28:27;;;;;;;21.75;9.45;;;;;;;;;;5116271;27;20046;-75
2022/03/27 10:31:01;;;;;;;20.42;8.63;;;;;;;;;;5112457;27;20039;-77
2022/03/27 10:33:34;;;;;;;21.15;8.38;;;;;;;;;;5117210;27;20035;-76
2022/03/27 10:36:04;;;;;;;19.67;8.13;;;;;;;;;;5124881;27;20096;-80
2022/03/27 10:38:45;;;;;;;19.67;9.38;;;;;;;;;;5120598;27;20532;-73
2022/03/27 10:41:25;;;;;;;16.70;9.15;;;;;;;;;;5119536;27;20501;-74
2022/03/27 10:44:17;;;;;;;20.65;9.90;;;;;;;;;;5118321;27;20036;-75
2022/03/27 10:47:17;;;;;;;19.23;8.90;;;;;;;;;;5098962;27;20120;-77
2022/03/27 10:50:04;;;;;;;23.85;8.85;;;;;;;;;;5116240;27;20041;-75
2022/03/27 10:52:30;;;;;;;19.95;9.45;;;;;;;;;;5134827;27;20179;-82
2022/03/27 10:55:22;;;;;;;20.13;8.90;;;;;;;;;;5110513;27;20131;-77
2022/03/27 10:57:49;;;;;;;16.52;7.93;;;;;;;;;;5113060;27;20051;-80
2022/03/27 11:00:35;;;;;;;23.40;9.18;;;;;;;;;;5115266;27;20052;-75
2022/03/27 11:03:02;;;;;;;17.48;7.40;;;;;;;;;;5135251;27;20719;-77
2022/03/27 11:05:36;;;;;;;24.95;9.27;;;;;;;;;;5129766;27;20073;-74
2022/03/27 11:08:14;;;;;;;18.80;8.25;;;;;;;;;;5134128;27;20109;-74
2022/03/27 11:10:41;;;;;;;21.05;9.10;;;;;;;;;;5133916;27;20063;-73
2022/03/27 11:13:26;;;;;;;19.17;8.77;;;;;;;;;;5117190;27;20945;-80
2022/03/27 11:16:08;;;;;;;22.73;9.35;;;;;;;;;;5116792;27;20046;-73
2022/03/27 11:18:41;;;;;;;18.65;8.35;;;;;;;;;;5132849;27;20073;-73
2022/03/27 11:21:08;;;;;;;22.35;11.63;;;;;;;;;;5136376;27;20116;-72
2022/03/27 11:23:37;;;;;;;22.58;9.05;;;;;;;;;;5131860;27;20791;-73
2022/03/27 11:26:04;;;;;;;23.15;9.18;;;;;;;;;;5119358;27;20038;-72
2022/03/27 11:28:50;;;;;;;20.38;9.48;;;;;;;;;;5132615;27;20083;-72
2022/03/27 11:31:17;;;;;;;23.15;8.95;;;;;;;;;;5114278;27;20068;-73
2022/03/27 11:33:45;;;;;;;22.83;9.80;;;;;;;;;;5120022;27;20596;-72
2022/03/27 11:36:12;;;;;;;20.58;8.93;;;;;;;;;;5135490;27;20047;-73
2022/03/27 11:38:50;;;;;;;33.13;11.77;;;;;;;;;;5133867;27;20039;-72
2022/03/27 11:41:24;;;;;;;22.83;9.85;;;;;;;;;;5116628;27;20043;-72
2022/03/27 11:43:50;;;;;;;20.35;9.57;;;;;;;;;;5118188;27;20040;-72
2022/03/27 11:46:30;;;;;;;22.38;10.27;;;;;;;;;;5133783;27;20043;-73
2022/03/27 11:48:59;;;;;;;17.85;9.55;;;;;;;;;;5118241;27;20643;-73
2022/03/27 11:51:26;;;;;;;21.60;9.02;;;;;;;;;;5132907;27;20143;-73
2022/03/27 11:53:53;;;;;;;26.75;11.43;;;;;;;;;;5121007;27;20036;-73
2022/03/27 11:56:19;;;;;;;23.30;11.43;;;;;;;;;;5122065;27;20071;-72
2022/03/27 11:59:03;;;;;;;17.98;8.30;;;;;;;;;;5129844;27;20088;-72
2022/03/27 12:01:29;;;;;;;23.60;10.05;;;;;;;;;;5130798;27;20047;-73
2022/03/27 12:03:58;;;;;;;24.35;11.13;;;;;;;;;;5135025;27;20043;-72
2022/03/27 12:06:28;;;;;;;21.90;9.27;;;;;;;;;;5117591;27;20185;-73
2022/03/27 12:08:55;;;;;;;21.77;10.93;;;;;;;;;;5119261;27;20106;-73
2022/03/27 12:11:23;;;;;;;30.83;10.45;;;;;;;;;;5128957;27;20502;-74
2022/03/27 12:13:49;;;;;;;21.27;9.88;;;;;;;;;;5115825;27;20050;-78
2022/03/27 12:16:26;;;;;;;26.10;12.50;;;;;;;;;;5133105;27;20043;-73
2022/03/27 12:18:52;;;;;;;21.58;9.18;;;;;;;;;;5113368;27;20538;-73
2022/03/27 12:21:20;;;;;;;20.52;10.02;;;;;;;;;;5132475;27;20530;-75
2022/03/27 12:24:02;;;;;;;26.00;11.13;;;;;;;;;;5112105;27;20039;-72
2022/03/27 12:31:59;;;;;;;24.10;11.00;;;;;;;;;;5131572;27;20043;-72
2022/03/27 12:34:25;;;;;;;20.65;9.55;;;;;;;;;;5116101;27;20043;-73
2022/03/27 12:37:11;;;;;;;25.52;10.90;;;;;;;;;;5130440;27;20028;-73
2022/03/27 12:39:38;;;;;;;24.10;10.75;;;;;;;;;;5113586;27;20039;-73
2022/03/27 12:42:06;;;;;;;22.40;11.10;;;;;;;;;;5131745;27;20040;-73
2022/03/27 12:44:51;;;;;;;22.25;9.25;;;;;;;;;;5113840;27;20047;-72
2022/03/27 12:47:17;;;;;;;24.27;10.77;;;;;;;;;;5116165;27;20031;-73
2022/03/27 12:49:47;;;;;;;21.80;10.65;;;;;;;;;;5130597;27;20042;-73
2022/03/27 12:52:13;;;;;;;23.92;11.20;;;;;;;;;;5116224;27;20521;-73
2022/03/27 12:54:59;;;;;;;24.70;11.45;;;;;;;;;;5135144;27;20604;-72
2022/03/27 12:57:27;;;;;;;22.05;10.27;;;;;;;;;;5131372;27;20031;-73
2022/03/27 12:59:53;;;;;;;21.73;10.75;;;;;;;;;;5115920;27;20043;-74
2022/03/27 13:02:24;;;;;;;18.95;11.18;;;;;;;;;;5113788;27;20186;-73
2022/03/27 13:05:00;;;;;;;24.90;10.82;;;;;;;;;;5132658;27;20043;-73
2022/03/27 13:07:45;;;;;;;23.77;11.30;;;;;;;;;;5115038;27;20176;-73
2022/03/27 13:10:11;;;;;;;26.58;11.70;;;;;;;;;;5116354;27;20089;-73
2022/03/27 13:12:37;;;;;;;25.42;11.82;;;;;;;;;;5118327;27;20102;-73
2022/03/27 13:15:04;;;;;;;25.75;10.27;;;;;;;;;;5131637;27;20477;-72
2022/03/27 13:17:30;;;;;;;25.05;9.88;;;;;;;;;;5132502;27;20046;-72
2022/03/27 13:19:56;;;;;;;21.38;10.82;;;;;;;;;;5117594;27;20096;-72
2022/03/27 13:22:22;;;;;;;22.80;11.85;;;;;;;;;;5131928;27;20190;-72
2022/03/27 13:24:51;;;;;;;23.70;10.68;;;;;;;;;;5137420;27;20596;-73
2022/03/27 13:27:17;;;;;;;27.60;14.00;;;;;;;;;;5116882;27;20039;-73
2022/03/27 13:29:43;;;;;;;30.25;13.02;;;;;;;;;;5115598;27;20098;-72
2022/03/27 13:32:09;;;;;;;24.17;11.02;;;;;;;;;;5130374;27;20050;-73
2022/03/27 13:34:37;;;;;;;23.13;12.68;;;;;;;;;;5134764;27;20035;-72
2022/03/27 13:37:03;;;;;;;25.15;11.82;;;;;;;;;;5118088;27;20043;-72
2022/03/27 13:39:30;;;;;;;19.38;8.07;;;;;;;;;;5133931;27;20067;-73
2022/03/27 13:44:41;;;;;;;21.88;11.77;;;;;;;;;;5135871;27;20078;-76
2022/03/27 13:47:10;;;;;;;26.25;10.70;;;;;;;;;;5130818;27;22480;-74
2022/03/27 13:49:36;;;;;;;26.27;11.82;;;;;;;;;;5116335;27;20051;-73
2022/03/27 13:52:02;;;;;;;21.90;10.43;;;;;;;;;;5130338;27;20043;-75
2022/03/27 13:54:28;;;;;;;26.48;12.60;;;;;;;;;;5118154;27;20573;-73
2022/03/27 13:56:54;;;;;;;27.25;10.90;;;;;;;;;;5116827;27;20058;-73
2022/03/27 13:59:20;;;;;;;25.95;11.77;;;;;;;;;;5112979;27;20130;-73
2022/03/27 14:01:47;;;;;;;27.17;11.13;;;;;;;;;;5108760;27;20611;-73
2022/03/27 14:04:15;;;;;;;32.25;13.63;;;;;;;;;;5090003;28;20036;-73
2022/03/27 14:06:42;;;;;;;26.13;12.00;;;;;;;;;;5089712;28;20048;-73
2022/03/27 14:09:11;;;;;;;25.55;12.25;;;;;;;;;;5093588;27;20040;-78
2022/03/27 14:11:38;;;;;;;24.05;11.25;;;;;;;;;;5095263;28;20533;-74
2022/03/27 14:14:04;;;;;;;25.67;12.25;;;;;;;;;;5094536;28;20916;-74
2022/03/27 14:16:31;;;;;;;24.30;11.13;;;;;;;;;;5089810;28;20075;-74
2022/03/27 14:18:57;;;;;;;21.60;11.00;;;;;;;;;;5091085;28;20049;-74
2022/03/27 14:21:26;;;;;;;24.45;12.43;;;;;;;;;;5097858;27;20533;-74
2022/03/27 14:23:52;;;;;;;26.85;12.43;;;;;;;;;;5095896;28;20036;-74
2022/03/27 14:26:19;;;;;;;25.35;11.07;;;;;;;;;;5095734;27;20036;-75
2022/03/27 14:28:45;;;;;;;22.17;12.18;;;;;;;;;;5095577;28;20132;-75
2022/03/27 14:31:11;;;;;;;23.60;12.27;;;;;;;;;;5093315;27;20032;-75
2022/03/27 14:33:37;;;;;;;27.08;12.05;;;;;;;;;;5096554;27;20537;-74
2022/03/27 14:36:03;;;;;;;22.50;11.43;;;;;;;;;;5091035;27;20995;-74
2022/03/27 14:38:30;;;;;;;25.70;12.55;;;;;;;;;;5094451;27;20078;-74
2022/03/27 14:40:58;;;;;;;22.92;11.23;;;;;;;;;;5096529;27;20067;-74
2022/03/27 14:43:27;;;;;;;29.23;12.25;;;;;;;;;;5094616;28;20048;-80
2022/03/27 14:45:58;;;;;;;24.25;11.20;;;;;;;;;;5095481;27;20701;-75
2022/03/27 14:48:24;;;;;;;24.38;12.35;;;;;;;;;;5092307;27;20068;-74